Terminal Aerodrome Forecast
Issued by NWS Billings, MT

Home | Current Version | Previous Version | Text Only | Print | Product List | Glossary Off
Versions: 1 2 3 4 5 6 7 8 9 10 11 12 13 14 15

000
FTUS45 KBYZ 191131
TAFMLS
TAF
KMLS 191131Z 1912/2012 20005KT P6SM BKN250
     FM191600 25015G23KT P6SM SCT250
     FM192000 25022G35KT P6SM SCT250
     FM192300 20005KT P6SM BKN250
     FM200300 25022G35KT P6SM SCT250=

USA.gov is the U.S. government's official web portal to all federal, state and local government web resources and services.